Time;durP1;ratioP1;P1;durP2;ratioP2;P2;SDS_P1;SDS_P2;PMS_P1;PMS_P2;Temp;Humidity;BMP_temperature;BMP_pressure;BME280_temperature;BME280_humidity;BME280_pressure;Samples;Min_cycle;Max_cycle;Signal;HPM_P1;HPM_P2
2021/08/01 00:01:54;;;;;;;3.80;2.40;;;;;;;;;;6188948;28;20100;-71
2021/08/01 00:04:57;;;;;;;5.35;2.83;;;;;;;;;;6197692;28;20054;-74
2021/08/01 00:07:58;;;;;;;3.25;2.63;;;;;;;;;;6186607;28;20070;-70
2021/08/01 00:11:00;;;;;;;4.47;2.13;;;;;;;;;;6188223;28;20100;-69
2021/08/01 00:14:01;;;;;;;3.40;2.33;;;;;;;;;;6199721;28;20057;-69
2021/08/01 00:17:05;;;;;;;3.63;2.38;;;;;;;;;;6186212;28;20509;-70
2021/08/01 00:20:07;;;;;;;;;;;;;;;;;;6200460;28;20129;-72
2021/08/01 00:23:09;;;;;;;2.88;2.38;;;;;;;;;;6193857;28;19921;-70
2021/08/01 00:26:11;;;;;;;6.90;4.40;;;;;;;;;;6193109;28;20046;-70
2021/08/01 00:29:12;;;;;;;4.07;3.15;;;;;;;;;;6196635;28;20145;-69
2021/08/01 00:32:15;;;;;;;4.35;2.40;;;;;;;;;;6186255;28;20124;-73
2021/08/01 00:35:17;;;;;;;4.20;2.20;;;;;;;;;;6191285;28;20136;-74
2021/08/01 00:38:18;;;;;;;3.75;2.47;;;;;;;;;;6197062;28;20145;-70
2021/08/01 00:41:20;;;;;;;3.90;2.20;;;;;;;;;;6188382;28;20107;-70
2021/08/01 00:44:21;;;;;;;3.67;2.00;;;;;;;;;;6198065;28;20081;-69
2021/08/01 00:47:25;;;;;;;3.20;2.20;;;;;;;;;;6182192;28;20145;-72
2021/08/01 00:50:26;;;;;;;3.13;2.50;;;;;;;;;;6187450;28;20141;-69
2021/08/01 00:53:28;;;;;;;3.85;2.40;;;;;;;;;;6193242;28;20057;-69
2021/08/01 00:56:30;;;;;;;3.13;2.35;;;;;;;;;;6190864;28;20137;-68
2021/08/01 00:59:33;;;;;;;2.40;2.20;;;;;;;;;;6200287;28;20042;-71
2021/08/01 01:02:38;;;;;;;2.63;2.30;;;;;;;;;;6180299;28;20747;-73
2021/08/01 01:05:45;;;;;;;3.83;2.63;;;;;;;;;;6188678;28;20047;-70
2021/08/01 01:08:53;;;;;;;3.10;2.28;;;;;;;;;;6193528;28;20058;-70
2021/08/01 01:11:55;;;;;;;2.88;2.35;;;;;;;;;;6190962;28;20140;-72
2021/08/01 01:14:57;;;;;;;3.05;2.38;;;;;;;;;;6195975;28;20149;-74
2021/08/01 01:18:01;;;;;;;3.08;2.10;;;;;;;;;;6181561;28;20053;-72
2021/08/01 01:21:09;;;;;;;3.85;2.60;;;;;;;;;;6188738;28;20042;-70
2021/08/01 01:24:14;;;;;;;4.53;2.55;;;;;;;;;;6195479;28;20184;-69
2021/08/01 01:27:21;;;;;;;3.40;2.42;;;;;;;;;;6187966;28;20054;-69
2021/08/01 01:30:24;;;;;;;3.72;2.45;;;;;;;;;;6183549;28;20051;-74
2021/08/01 01:33:29;;;;;;;2.63;2.27;;;;;;;;;;6190861;28;20103;-71
2021/08/01 01:36:32;;;;;;;4.07;2.53;;;;;;;;;;6186792;28;20251;-69
2021/08/01 01:39:38;;;;;;;5.00;2.70;;;;;;;;;;6183276;28;20038;-69
2021/08/01 01:42:40;;;;;;;5.05;2.47;;;;;;;;;;6185417;28;20153;-70
2021/08/01 01:45:41;;;;;;;4.05;2.67;;;;;;;;;;6184561;28;20991;-76
2021/08/01 01:48:43;;;;;;;3.95;2.90;;;;;;;;;;6198184;28;20183;-71
2021/08/01 01:51:47;;;;;;;3.75;2.50;;;;;;;;;;6184243;28;20054;-69
2021/08/01 01:54:48;;;;;;;3.03;2.47;;;;;;;;;;6192265;28;20058;-69
2021/08/01 01:57:50;;;;;;;4.70;2.70;;;;;;;;;;6191877;28;20094;-69
2021/08/01 02:00:52;;;;;;;4.32;2.65;;;;;;;;;;6180041;28;20078;-68
2021/08/01 02:03:54;;;;;;;4.10;2.80;;;;;;;;;;6191439;28;20393;-69
2021/08/01 02:06:57;;;;;;;3.40;2.70;;;;;;;;;;6185946;28;20473;-70
2021/08/01 02:10:03;;;;;;;3.85;2.63;;;;;;;;;;6196098;28;20070;-69
2021/08/01 02:13:07;;;;;;;2.53;2.30;;;;;;;;;;6189084;28;20061;-69
2021/08/01 02:16:09;;;;;;;3.63;3.10;;;;;;;;;;6180961;28;20042;-76
2021/08/01 02:19:13;;;;;;;8.02;2.78;;;;;;;;;;6188470;28;20141;-69
2021/08/01 02:22:17;;;;;;;2.95;2.58;;;;;;;;;;6188858;28;20034;-72
2021/08/01 02:25:19;;;;;;;4.55;2.80;;;;;;;;;;6194448;28;20038;-71
2021/08/01 02:28:23;;;;;;;3.60;2.80;;;;;;;;;;6200487;28;20133;-76
2021/08/01 02:31:25;;;;;;;4.57;2.97;;;;;;;;;;6190724;28;20228;-70
2021/08/01 02:34:28;;;;;;;3.38;2.53;;;;;;;;;;6200695;28;20108;-70
2021/08/01 02:37:31;;;;;;;4.33;2.90;;;;;;;;;;6193585;28;20062;-72
2021/08/01 02:40:37;;;;;;;5.22;3.03;;;;;;;;;;6194226;28;20042;-71
2021/08/01 02:43:38;;;;;;;4.00;2.60;;;;;;;;;;6204952;28;20046;-70
2021/08/01 02:46:41;;;;;;;6.07;3.33;;;;;;;;;;6192751;28;20502;-69
2021/08/01 02:49:45;;;;;;;4.85;2.80;;;;;;;;;;6198935;28;20473;-69
2021/08/01 02:52:53;;;;;;;4.65;2.95;;;;;;;;;;6191268;28;20115;-69
2021/08/01 02:55:57;;;;;;;3.30;2.60;;;;;;;;;;6194842;28;20197;-71
2021/08/01 02:59:01;;;;;;;3.47;2.78;;;;;;;;;;6202628;28;20054;-69
2021/08/01 03:02:02;;;;;;;4.05;2.80;;;;;;;;;;6184694;28;20061;-70
2021/08/01 03:05:06;;;;;;;3.95;3.00;;;;;;;;;;6195697;28;20140;-70
2021/08/01 03:08:12;;;;;;;7.68;3.13;;;;;;;;;;6191872;28;20054;-71
2021/08/01 03:11:20;;;;;;;3.67;2.78;;;;;;;;;;6195127;28;20579;-69
2021/08/01 03:14:22;;;;;;;3.63;2.70;;;;;;;;;;6203191;28;20096;-70
2021/08/01 03:17:24;;;;;;;5.38;3.05;;;;;;;;;;6184090;28;20644;-69
2021/08/01 03:20:26;;;;;;;4.70;2.78;;;;;;;;;;6189648;28;20055;-69
2021/08/01 03:23:29;;;;;;;4.95;2.65;;;;;;;;;;6189512;28;20121;-75
2021/08/01 03:26:30;;;;;;;3.83;2.83;;;;;;;;;;6188717;28;20078;-70
2021/08/01 03:29:32;;;;;;;4.20;2.83;;;;;;;;;;6199483;28;20049;-69
2021/08/01 03:32:33;;;;;;;3.95;2.80;;;;;;;;;;6184960;28;20099;-69
2021/08/01 03:35:35;;;;;;;3.85;2.80;;;;;;;;;;6186950;28;20483;-74
2021/08/01 03:38:38;;;;;;;3.55;2.70;;;;;;;;;;6203273;28;20143;-72
2021/08/01 03:41:41;;;;;;;7.32;3.08;;;;;;;;;;6198586;28;20438;-74
2021/08/01 03:44:43;;;;;;;5.57;2.85;;;;;;;;;;6189340;28;20751;-71
2021/08/01 03:47:44;;;;;;;4.70;2.85;;;;;;;;;;6185826;28;20070;-71
2021/08/01 03:50:46;;;;;;;6.63;3.00;;;;;;;;;;6197762;28;20520;-71
2021/08/01 03:53:49;;;;;;;4.25;3.00;;;;;;;;;;6198743;28;20534;-73
2021/08/01 03:56:50;;;;;;;4.85;2.97;;;;;;;;;;6187626;28;20108;-71
2021/08/01 03:59:52;;;;;;;3.38;2.90;;;;;;;;;;6198074;28;20137;-72
2021/08/01 04:02:53;;;;;;;3.60;2.30;;;;;;;;;;6187209;28;20077;-70
2021/08/01 04:05:55;;;;;;;3.55;3.13;;;;;;;;;;6185161;28;20066;-70
2021/08/01 04:08:58;;;;;;;2.47;2.28;;;;;;;;;;6196829;28;20046;-69
2021/08/01 04:12:00;;;;;;;6.80;3.28;;;;;;;;;;6182508;28;20054;-73
2021/08/01 04:15:01;;;;;;;4.68;2.97;;;;;;;;;;6198663;28;20557;-71
2021/08/01 04:18:05;;;;;;;3.88;3.05;;;;;;;;;;6182009;28;20501;-69
2021/08/01 04:21:08;;;;;;;3.58;2.88;;;;;;;;;;6183057;28;20046;-69
2021/08/01 04:24:11;;;;;;;5.28;3.50;;;;;;;;;;6193871;28;20061;-69
2021/08/01 04:27:13;;;;;;;3.13;2.60;;;;;;;;;;6188232;28;20498;-69
2021/08/01 04:30:15;;;;;;;4.55;3.08;;;;;;;;;;6193636;28;20405;-76
2021/08/01 04:33:16;;;;;;;5.50;2.67;;;;;;;;;;6195294;28;20042;-69
2021/08/01 04:36:18;;;;;;;4.97;2.72;;;;;;;;;;6186102;28;20402;-69
2021/08/01 04:39:21;;;;;;;3.63;2.92;;;;;;;;;;6190540;28;20176;-70
2021/08/01 04:42:22;;;;;;;5.75;2.90;;;;;;;;;;6183314;28;20403;-70
2021/08/01 04:45:24;;;;;;;4.55;3.10;;;;;;;;;;6184951;28;20561;-73
2021/08/01 04:48:26;;;;;;;4.18;2.85;;;;;;;;;;6168820;28;20062;-73
2021/08/01 04:51:27;;;;;;;4.57;2.50;;;;;;;;;;6175749;28;20165;-74
2021/08/01 04:54:30;;;;;;;6.07;2.75;;;;;;;;;;6196557;28;20104;-72
2021/08/01 04:57:32;;;;;;;3.60;3.00;;;;;;;;;;6187211;28;20050;-69
2021/08/01 05:00:33;;;;;;;5.25;3.13;;;;;;;;;;6188025;28;20495;-77
2021/08/01 05:03:35;;;;;;;4.22;2.65;;;;;;;;;;6201875;28;20500;-68
2021/08/01 05:06:36;;;;;;;5.45;2.95;;;;;;;;;;6196478;28;20046;-67
2021/08/01 05:09:39;;;;;;;4.53;3.28;;;;;;;;;;6204279;28;20050;-69
2021/08/01 05:12:42;;;;;;;4.72;3.28;;;;;;;;;;6196298;28;20541;-72
2021/08/01 05:15:44;;;;;;;6.30;2.60;;;;;;;;;;6193961;28;20042;-73
2021/08/01 05:18:45;;;;;;;4.93;3.17;;;;;;;;;;6199310;28;20058;-69
2021/08/01 05:21:47;;;;;;;4.88;3.38;;;;;;;;;;6196570;28;20070;-70
2021/08/01 05:24:50;;;;;;;5.00;3.15;;;;;;;;;;6204017;28;20049;-71
2021/08/01 05:27:51;;;;;;;3.70;2.85;;;;;;;;;;6199932;28;20076;-69
2021/08/01 05:30:53;;;;;;;3.95;3.03;;;;;;;;;;6197454;28;20452;-69
2021/08/01 05:33:54;;;;;;;3.30;2.90;;;;;;;;;;6197122;28;20145;-70
2021/08/01 05:36:56;;;;;;;6.57;3.15;;;;;;;;;;6198176;28;20068;-72
2021/08/01 05:39:59;;;;;;;4.72;3.15;;;;;;;;;;6206048;28;20062;-84
2021/08/01 05:43:01;;;;;;;4.00;3.00;;;;;;;;;;6206251;28;20054;-70
2021/08/01 05:46:02;;;;;;;3.38;2.90;;;;;;;;;;6197746;28;20125;-69
2021/08/01 05:49:04;;;;;;;3.25;2.58;;;;;;;;;;6203968;28;20129;-69
2021/08/01 05:52:06;;;;;;;4.97;3.17;;;;;;;;;;6199286;28;20049;-76
2021/08/01 05:55:10;;;;;;;6.20;3.13;;;;;;;;;;6199777;28;20418;-73
2021/08/01 05:58:11;;;;;;;5.63;3.25;;;;;;;;;;6190254;28;20047;-70
2021/08/01 06:01:14;;;;;;;3.70;2.80;;;;;;;;;;6193668;28;20058;-70
2021/08/01 06:04:15;;;;;;;4.28;2.97;;;;;;;;;;6198543;28;20054;-69
2021/08/01 06:07:17;;;;;;;4.22;3.08;;;;;;;;;;6199125;28;20038;-69
2021/08/01 06:10:20;;;;;;;4.00;2.80;;;;;;;;;;6202965;28;20490;-73
2021/08/01 06:13:22;;;;;;;6.50;3.05;;;;;;;;;;6205069;28;20046;-70
2021/08/01 06:16:23;;;;;;;4.32;2.90;;;;;;;;;;6183000;28;20050;-69
2021/08/01 06:19:25;;;;;;;3.35;2.50;;;;;;;;;;6194287;28;20053;-72
2021/08/01 06:22:26;;;;;;;5.03;3.00;;;;;;;;;;6186077;28;20529;-73
2021/08/01 06:25:30;;;;;;;4.60;2.95;;;;;;;;;;6193332;28;20133;-72
2021/08/01 06:28:32;;;;;;;4.22;3.50;;;;;;;;;;6198173;28;20062;-70
2021/08/01 06:31:34;;;;;;;4.55;3.08;;;;;;;;;;6187985;28;20407;-74
2021/08/01 06:34:37;;;;;;;3.65;2.53;;;;;;;;;;6198002;28;20185;-70
2021/08/01 06:37:38;;;;;;;3.30;2.28;;;;;;;;;;6189039;28;20042;-70
2021/08/01 06:40:41;;;;;;;3.60;2.78;;;;;;;;;;6192135;28;20156;-72
2021/08/01 06:43:43;;;;;;;3.05;2.13;;;;;;;;;;6200561;28;20054;-71
2021/08/01 06:46:44;;;;;;;4.22;2.85;;;;;;;;;;6185345;28;20474;-71
2021/08/01 06:49:46;;;;;;;4.03;3.35;;;;;;;;;;6197076;28;20145;-70
2021/08/01 06:52:48;;;;;;;3.03;2.35;;;;;;;;;;6190223;28;20466;-69
2021/08/01 06:55:51;;;;;;;3.20;2.33;;;;;;;;;;6192573;28;20148;-69
2021/08/01 06:58:52;;;;;;;;;;;;;;;;;;6207482;28;20050;-70
2021/08/01 07:01:54;;;;;;;3.45;2.20;;;;;;;;;;6194039;28;19930;-70
2021/08/01 07:04:57;;;;;;;3.78;2.45;;;;;;;;;;6200491;28;20475;-70
2021/08/01 07:07:59;;;;;;;5.53;2.38;;;;;;;;;;6193331;28;20427;-70
2021/08/01 07:11:02;;;;;;;3.67;2.25;;;;;;;;;;6189976;28;20050;-71
2021/08/01 07:14:03;;;;;;;3.03;2.55;;;;;;;;;;6202366;28;20052;-70
2021/08/01 07:17:05;;;;;;;2.85;2.20;;;;;;;;;;6188593;28;20084;-70
2021/08/01 07:20:08;;;;;;;3.67;2.47;;;;;;;;;;6205217;28;20121;-74
2021/08/01 07:23:10;;;;;;;;;;;;;;;;;;6190482;28;20132;-70
2021/08/01 07:26:13;;;;;;;3.33;2.22;;;;;;;;;;6197289;28;19957;-70
2021/08/01 07:29:15;;;;;;;3.03;1.95;;;;;;;;;;6212587;28;20057;-70
2021/08/01 07:32:16;;;;;;;3.03;2.20;;;;;;;;;;6186846;28;20109;-73
2021/08/01 07:35:18;;;;;;;4.15;2.33;;;;;;;;;;6198414;28;20209;-74
2021/08/01 07:38:19;;;;;;;3.10;2.20;;;;;;;;;;6199099;28;20108;-70
2021/08/01 07:41:22;;;;;;;3.55;2.30;;;;;;;;;;6196370;28;20463;-69
2021/08/01 07:44:26;;;;;;;3.38;2.38;;;;;;;;;;6201541;28;20054;-71
2021/08/01 07:47:27;;;;;;;;;;;;;;;;;;6184402;28;20047;-70
2021/08/01 07:50:29;;;;;;;2.95;2.53;;;;;;;;;;6190124;28;20024;-71
2021/08/01 07:53:31;;;;;;;2.90;2.23;;;;;;;;;;6191644;28;20096;-71
2021/08/01 07:56:35;;;;;;;2.65;2.35;;;;;;;;;;6176973;28;20057;-70
2021/08/01 07:59:38;;;;;;;4.28;2.42;;;;;;;;;;6199936;28;20074;-72
2021/08/01 08:02:40;;;;;;;3.70;2.10;;;;;;;;;;6186456;28;20038;-71
2021/08/01 08:05:42;;;;;;;4.47;2.67;;;;;;;;;;6191305;28;20707;-73
2021/08/01 08:08:43;;;;;;;3.17;2.70;;;;;;;;;;6198403;28;20560;-69
2021/08/01 08:11:46;;;;;;;3.78;2.70;;;;;;;;;;6196709;28;20054;-71
2021/08/01 08:14:47;;;;;;;4.82;2.83;;;;;;;;;;6200638;28;20042;-69
2021/08/01 08:17:49;;;;;;;3.03;2.50;;;;;;;;;;6182190;28;20046;-69
2021/08/01 08:20:51;;;;;;;5.70;3.10;;;;;;;;;;6191911;28;20278;-70
2021/08/01 08:23:52;;;;;;;4.43;2.70;;;;;;;;;;6198907;28;20494;-69
2021/08/01 08:26:56;;;;;;;3.00;2.60;;;;;;;;;;6190982;28;20141;-69
2021/08/01 08:29:57;;;;;;;4.63;2.97;;;;;;;;;;6204891;28;20130;-69
2021/08/01 08:32:59;;;;;;;5.13;2.95;;;;;;;;;;6193810;28;20042;-70
2021/08/01 08:36:00;;;;;;;4.55;3.05;;;;;;;;;;6192806;28;20129;-70
2021/08/01 08:39:02;;;;;;;3.35;2.90;;;;;;;;;;6197172;28;20538;-69
2021/08/01 08:42:05;;;;;;;3.95;2.88;;;;;;;;;;6193140;28;20132;-69
2021/08/01 08:45:07;;;;;;;;;;;;;;;;;;6206448;28;20064;-73
2021/08/01 08:48:08;;;;;;;4.00;2.92;;;;;;;;;;6194634;28;19925;-68
2021/08/01 08:51:11;;;;;;;3.42;2.88;;;;;;;;;;6186873;28;20050;-72
2021/08/01 08:54:15;;;;;;;4.55;2.78;;;;;;;;;;6207096;28;20182;-69
2021/08/01 08:57:21;;;;;;;4.63;2.92;;;;;;;;;;6206599;28;20520;-68
2021/08/01 09:00:25;;;;;;;4.30;2.65;;;;;;;;;;6201623;28;20069;-71
2021/08/01 09:03:26;;;;;;;4.03;2.90;;;;;;;;;;6197620;28;20054;-68
2021/08/01 09:06:29;;;;;;;5.18;2.83;;;;;;;;;;6192527;28;20046;-68
2021/08/01 09:09:31;;;;;;;;;;;;;;;;;;6203336;28;20617;-70
2021/08/01 09:12:40;;;;;;;3.05;2.60;;;;;;;;;;6195674;28;19922;-67
2021/08/01 09:15:42;;;;;;;5.38;2.75;;;;;;;;;;6195703;28;20081;-73
2021/08/01 09:18:45;;;;;;;3.72;2.70;;;;;;;;;;6193215;28;20054;-68
2021/08/01 09:21:46;;;;;;;3.22;2.88;;;;;;;;;;6196730;28;20048;-70
2021/08/01 09:24:49;;;;;;;4.30;2.90;;;;;;;;;;6202643;28;20137;-73
2021/08/01 09:27:52;;;;;;;3.40;2.80;;;;;;;;;;6201755;28;20059;-71
2021/08/01 09:30:56;;;;;;;3.25;2.80;;;;;;;;;;6200264;28;20391;-70
2021/08/01 09:33:57;;;;;;;3.70;2.80;;;;;;;;;;6199487;28;20466;-70
2021/08/01 09:37:02;;;;;;;3.72;3.03;;;;;;;;;;6190762;28;20135;-69
2021/08/01 09:40:09;;;;;;;4.00;3.22;;;;;;;;;;6196174;28;20045;-70
2021/08/01 09:43:15;;;;;;;6.70;3.58;;;;;;;;;;6194473;28;20038;-70
2021/08/01 09:46:16;;;;;;;3.20;2.90;;;;;;;;;;6182360;28;20403;-70
2021/08/01 09:49:19;;;;;;;3.83;3.03;;;;;;;;;;6198186;28;20192;-70
2021/08/01 09:52:24;;;;;;;6.00;3.25;;;;;;;;;;6190317;28;20465;-70
2021/08/01 09:55:26;;;;;;;4.88;3.38;;;;;;;;;;6192594;28;20839;-72
2021/08/01 09:58:36;;;;;;;6.07;3.50;;;;;;;;;;6193785;28;20717;-70
2021/08/01 10:01:48;;;;;;;4.22;3.60;;;;;;;;;;6186027;28;20498;-72
2021/08/01 10:04:50;;;;;;;4.60;3.55;;;;;;;;;;6196233;28;20065;-70
2021/08/01 10:07:52;;;;;;;4.07;3.33;;;;;;;;;;6188776;28;20124;-70
2021/08/01 10:11:08;;;;;;;3.95;3.45;;;;;;;;;;6192800;28;20049;-70
2021/08/01 10:14:12;;;;;;;5.22;2.88;;;;;;;;;;6197975;28;20054;-70
2021/08/01 10:17:13;;;;;;;4.00;3.60;;;;;;;;;;6187898;28;20051;-73
2021/08/01 10:20:15;;;;;;;4.90;3.28;;;;;;;;;;6192799;28;20050;-71
2021/08/01 10:23:17;;;;;;;4.78;3.53;;;;;;;;;;6194082;28;20177;-70
2021/08/01 10:26:20;;;;;;;4.70;3.60;;;;;;;;;;6190004;28;20056;-70
2021/08/01 10:29:28;;;;;;;3.65;3.35;;;;;;;;;;6198274;28;20042;-70
2021/08/01 10:32:31;;;;;;;5.38;3.90;;;;;;;;;;6186176;28;20058;-70
2021/08/01 10:35:34;;;;;;;4.28;3.88;;;;;;;;;;6188304;28;20212;-73
2021/08/01 10:38:38;;;;;;;6.15;4.22;;;;;;;;;;6195705;28;20140;-70
2021/08/01 10:41:40;;;;;;;4.93;3.90;;;;;;;;;;6190704;28;20046;-73
2021/08/01 10:44:43;;;;;;;5.07;4.10;;;;;;;;;;6200351;28;20105;-70
2021/08/01 10:47:45;;;;;;;7.55;4.63;;;;;;;;;;6185982;28;20099;-70
2021/08/01 10:50:50;;;;;;;5.85;4.00;;;;;;;;;;6195472;28;20060;-71
2021/08/01 10:53:51;;;;;;;4.93;4.40;;;;;;;;;;6210221;28;20092;-69
2021/08/01 10:57:12;;;;;;;4.23;3.83;;;;;;;;;;6206477;28;20129;-69
2021/08/01 11:00:15;;;;;;;5.70;4.00;;;;;;;;;;6211469;28;20483;-69
2021/08/01 11:03:17;;;;;;;4.07;3.45;;;;;;;;;;6197377;28;20064;-69
2021/08/01 11:06:40;;;;;;;;;;;;;;;;;;6182738;28;20140;-69
2021/08/01 11:10:22;;;;;;;4.17;3.77;;;;;;;;;;6201966;28;19921;-70
2021/08/01 11:13:38;;;;;;;4.30;3.80;;;;;;;;;;6205000;28;20054;-69
2021/08/01 11:16:50;;;;;;;4.70;4.10;;;;;;;;;;6201750;28;20058;-69
2021/08/01 11:19:51;;;;;;;4.43;4.03;;;;;;;;;;6205365;28;20054;-69
2021/08/01 11:22:54;;;;;;;5.30;3.85;;;;;;;;;;6190584;28;20042;-69
2021/08/01 11:26:12;;;;;;;4.60;3.80;;;;;;;;;;6192523;28;20517;-69
2021/08/01 11:29:14;;;;;;;5.20;3.85;;;;;;;;;;6209104;28;20482;-70
2021/08/01 11:32:17;;;;;;;4.63;3.83;;;;;;;;;;6196859;28;20092;-72
2021/08/01 11:35:21;;;;;;;5.32;3.60;;;;;;;;;;6204642;28;20046;-73
2021/08/01 11:38:23;;;;;;;4.00;3.60;;;;;;;;;;6206395;28;20046;-69
2021/08/01 11:41:34;;;;;;;4.20;3.60;;;;;;;;;;6193697;28;20046;-69
2021/08/01 11:44:56;;;;;;;4.97;3.95;;;;;;;;;;6200711;28;20034;-70
2021/08/01 11:47:59;;;;;;;4.10;3.70;;;;;;;;;;6192624;28;20054;-71
2021/08/01 11:51:05;;;;;;;4.63;3.30;;;;;;;;;;6188011;28;20104;-70
2021/08/01 11:54:08;;;;;;;7.18;3.60;;;;;;;;;;6199819;28;20058;-68
2021/08/01 11:57:11;;;;;;;4.20;3.75;;;;;;;;;;6180199;28;20054;-71
2021/08/01 12:00:14;;;;;;;4.15;3.42;;;;;;;;;;6197181;28;20057;-70
2021/08/01 12:03:18;;;;;;;5.03;3.75;;;;;;;;;;6196204;28;20080;-73
2021/08/01 12:06:31;;;;;;;4.13;3.65;;;;;;;;;;6185825;28;20046;-71
2021/08/01 12:09:37;;;;;;;3.95;3.53;;;;;;;;;;6198624;28;20058;-74
2021/08/01 12:12:39;;;;;;;3.65;3.30;;;;;;;;;;6188543;28;20092;-70
2021/08/01 12:15:40;;;;;;;5.72;3.70;;;;;;;;;;6189059;28;20046;-70
2021/08/01 12:18:43;;;;;;;3.65;3.25;;;;;;;;;;6190082;28;20050;-70
2021/08/01 12:21:45;;;;;;;4.47;3.30;;;;;;;;;;6195335;28;20050;-70
2021/08/01 12:24:48;;;;;;;5.32;3.50;;;;;;;;;;6198491;28;20577;-71
2021/08/01 12:27:50;;;;;;;;;;;;;;;;;;6194440;28;20131;-68
2021/08/01 12:30:51;;;;;;;4.22;3.30;;;;;;;;;;6200598;28;20936;-68
2021/08/01 12:33:54;;;;;;;4.85;3.08;;;;;;;;;;6197175;28;20431;-68
2021/08/01 12:36:56;;;;;;;3.53;2.83;;;;;;;;;;6196729;28;20056;-70
2021/08/01 12:39:58;;;;;;;3.70;3.17;;;;;;;;;;6207905;28;20054;-69
2021/08/01 12:43:01;;;;;;;3.97;2.90;;;;;;;;;;6200942;28;20952;-67
2021/08/01 12:46:15;;;;;;;3.67;3.00;;;;;;;;;;6198745;28;20185;-73
2021/08/01 12:49:18;;;;;;;4.28;3.35;;;;;;;;;;6197575;28;20096;-71
2021/08/01 12:52:22;;;;;;;3.15;2.50;;;;;;;;;;6189038;28;20042;-69
2021/08/01 12:55:24;;;;;;;2.60;2.38;;;;;;;;;;6192182;28;20066;-73
2021/08/01 12:58:30;;;;;;;2.30;2.10;;;;;;;;;;6198913;28;20054;-72
2021/08/01 13:01:38;;;;;;;4.38;2.60;;;;;;;;;;6188195;28;20046;-73
2021/08/01 13:04:43;;;;;;;3.22;2.67;;;;;;;;;;6197695;28;20050;-70
2021/08/01 13:07:45;;;;;;;2.53;2.33;;;;;;;;;;6197395;28;20168;-70
2021/08/01 13:10:48;;;;;;;2.90;2.60;;;;;;;;;;6192540;28;20042;-69
2021/08/01 13:13:50;;;;;;;2.67;2.45;;;;;;;;;;6196417;28;20173;-73
2021/08/01 13:16:54;;;;;;;2.72;2.33;;;;;;;;;;6186809;28;20228;-69
2021/08/01 13:19:57;;;;;;;2.83;2.58;;;;;;;;;;6204239;28;20531;-72
2021/08/01 13:22:58;;;;;;;3.70;2.85;;;;;;;;;;6195301;28;20053;-72
2021/08/01 13:26:01;;;;;;;3.53;2.65;;;;;;;;;;6190369;28;20477;-71
2021/08/01 13:29:05;;;;;;;3.58;3.10;;;;;;;;;;6202544;28;20050;-70
2021/08/01 13:32:08;;;;;;;3.10;2.80;;;;;;;;;;6186160;28;20096;-73
2021/08/01 13:35:19;;;;;;;3.90;3.13;;;;;;;;;;6192726;28;20104;-69
2021/08/01 13:38:25;;;;;;;2.88;2.50;;;;;;;;;;6192633;28;20152;-69
2021/08/01 13:41:27;;;;;;;3.85;2.72;;;;;;;;;;6190942;28;20421;-69
2021/08/01 13:44:28;;;;;;;3.55;2.80;;;;;;;;;;6199230;28;20159;-69
2021/08/01 13:47:32;;;;;;;2.30;2.10;;;;;;;;;;6176738;28;20042;-69
2021/08/01 13:50:35;;;;;;;3.53;1.85;;;;;;;;;;6191843;28;20715;-71
2021/08/01 13:53:37;;;;;;;;;;;;;;;;;;6199062;28;20509;-69
2021/08/01 13:56:38;;;;;;;1.52;1.42;;;;;;;;;;6187912;28;19929;-69
2021/08/01 13:59:40;;;;;;;1.73;1.38;;;;;;;;;;6200941;28;20050;-70
2021/08/01 14:02:42;;;;;;;1.30;1.10;;;;;;;;;;6190384;28;20050;-69
2021/08/01 14:05:45;;;;;;;8.32;1.85;;;;;;;;;;6182309;28;20494;-70
2021/08/01 14:08:46;;;;;;;;;;;;;;;;;;6197288;28;20065;-67
2021/08/01 14:11:48;;;;;;;4.97;1.60;;;;;;;;;;6189466;28;20451;-67
2021/08/01 14:14:50;;;;;;;5.80;1.92;;;;;;;;;;6198297;28;20053;-67
2021/08/01 14:17:52;;;;;;;3.57;1.40;;;;;;;;;;6187023;28;20093;-68
2021/08/01 14:20:55;;;;;;;8.93;1.55;;;;;;;;;;6196856;28;21490;-70
2021/08/01 14:23:57;;;;;;;11.88;2.30;;;;;;;;;;6202412;28;20072;-68
2021/08/01 14:26:59;;;;;;;4.15;1.45;;;;;;;;;;6198695;28;20070;-72
2021/08/01 14:30:01;;;;;;;5.15;1.98;;;;;;;;;;6206761;28;20176;-67
2021/08/01 14:33:03;;;;;;;4.18;1.60;;;;;;;;;;6191837;28;20046;-67
2021/08/01 14:36:06;;;;;;;5.68;1.60;;;;;;;;;;6191339;28;20103;-68
2021/08/01 14:39:12;;;;;;;3.58;1.00;;;;;;;;;;6199853;28;20554;-71
2021/08/01 14:42:15;;;;;;;3.95;1.10;;;;;;;;;;6197408;28;20053;-71
2021/08/01 14:45:17;;;;;;;2.35;1.00;;;;;;;;;;6207263;28;20637;-71
2021/08/01 14:48:21;;;;;;;2.25;1.05;;;;;;;;;;6206200;28;20128;-71
2021/08/01 14:54:43;;;;;;;3.67;1.00;;;;;;;;;;6215661;28;20050;-70
2021/08/01 14:57:47;;;;;;;1.88;1.00;;;;;;;;;;6202674;28;20077;-72
2021/08/01 15:00:53;;;;;;;1.75;0.90;;;;;;;;;;6194029;28;20125;-72
2021/08/01 15:04:01;;;;;;;2.70;1.00;;;;;;;;;;6207427;28;20052;-72
2021/08/01 15:07:10;;;;;;;2.55;0.90;;;;;;;;;;6206380;28;20038;-70
2021/08/01 15:10:12;;;;;;;2.05;0.82;;;;;;;;;;6200513;28;20131;-72
2021/08/01 15:13:19;;;;;;;1.75;0.90;;;;;;;;;;6209819;28;20065;-71
2021/08/01 15:16:25;;;;;;;3.45;1.00;;;;;;;;;;6199283;28;20076;-69
2021/08/01 15:19:30;;;;;;;1.75;0.93;;;;;;;;;;6207936;28;20077;-73
2021/08/01 15:22:48;;;;;;;3.13;1.05;;;;;;;;;;6203328;28;20387;-70
2021/08/01 15:25:53;;;;;;;2.65;1.27;;;;;;;;;;6204960;28;20045;-71
2021/08/01 15:28:55;;;;;;;2.92;1.08;;;;;;;;;;6206563;28;20042;-69
2021/08/01 15:31:57;;;;;;;3.28;1.10;;;;;;;;;;6200834;28;20129;-70
2021/08/01 15:34:59;;;;;;;3.10;1.13;;;;;;;;;;6209066;28;20050;-81
2021/08/01 15:38:08;;;;;;;4.97;2.03;;;;;;;;;;6207215;28;20046;-68
2021/08/01 15:41:10;;;;;;;3.42;1.73;;;;;;;;;;6200260;28;20077;-70
2021/08/01 15:44:12;;;;;;;3.72;1.52;;;;;;;;;;6208885;28;20042;-69
2021/08/01 15:47:17;;;;;;;4.97;1.38;;;;;;;;;;6199197;28;20133;-78
2021/08/01 15:50:19;;;;;;;3.47;1.83;;;;;;;;;;6202704;28;20049;-81
2021/08/01 15:53:24;;;;;;;3.30;1.67;;;;;;;;;;6214339;28;20116;-70
2021/08/01 15:56:30;;;;;;;5.00;1.77;;;;;;;;;;6209635;28;20084;-69
2021/08/01 15:59:41;;;;;;;3.53;1.95;;;;;;;;;;6211569;28;20121;-72
2021/08/01 16:03:11;;;;;;;4.20;2.20;;;;;;;;;;6201007;28;20375;-70
2021/08/01 16:06:15;;;;;;;6.60;2.95;;;;;;;;;;6193389;28;20070;-68
2021/08/01 16:09:18;;;;;;;;;;;;;;;;;;6205613;28;20565;-72
2021/08/01 16:12:22;;;;;;;4.87;2.47;;;;;;;;;;6197840;28;19928;-68
2021/08/01 16:15:24;;;;;;;7.05;2.60;;;;;;;;;;6206670;28;20053;-76
2021/08/01 16:18:26;;;;;;;3.22;2.40;;;;;;;;;;6196613;28;20076;-68
2021/08/01 16:21:28;;;;;;;6.78;2.90;;;;;;;;;;6190852;28;20056;-70
2021/08/01 16:24:31;;;;;;;3.90;2.40;;;;;;;;;;6208798;28;20125;-68
2021/08/01 16:27:33;;;;;;;4.65;2.40;;;;;;;;;;6188990;28;20073;-69
2021/08/01 16:30:35;;;;;;;3.92;2.30;;;;;;;;;;6198444;28;20070;-69
2021/08/01 16:33:37;;;;;;;6.15;2.35;;;;;;;;;;6205048;28;20054;-71
2021/08/01 16:36:39;;;;;;;2.63;2.25;;;;;;;;;;6192284;28;20202;-71
2021/08/01 16:39:42;;;;;;;3.55;2.25;;;;;;;;;;6193854;28;20050;-68
2021/08/01 16:42:55;;;;;;;3.63;2.50;;;;;;;;;;6194376;28;20205;-68
2021/08/01 16:46:01;;;;;;;;;;;;;;;;;;6188171;28;20046;-69
2021/08/01 16:49:03;;;;;;;7.88;3.17;;;;;;;;;;6196420;28;19925;-69
2021/08/01 16:52:10;;;;;;;5.05;2.75;;;;;;;;;;6189718;28;20100;-70
2021/08/01 16:55:19;;;;;;;2.75;1.52;;;;;;;;;;6194363;28;20038;-70
2021/08/01 16:58:25;;;;;;;2.97;1.70;;;;;;;;;;6197316;28;20129;-69
2021/08/01 17:01:32;;;;;;;2.03;1.40;;;;;;;;;;6184949;28;20053;-68
2021/08/01 17:04:39;;;;;;;2.28;1.58;;;;;;;;;;6200363;28;20049;-69
2021/08/01 17:07:45;;;;;;;3.53;1.70;;;;;;;;;;6187207;28;20046;-68
2021/08/01 17:11:03;;;;;;;3.58;1.83;;;;;;;;;;6191101;28;20139;-68
2021/08/01 17:14:05;;;;;;;3.05;1.63;;;;;;;;;;6198330;28;20050;-69
2021/08/01 17:17:07;;;;;;;3.03;1.80;;;;;;;;;;6190799;28;20038;-68
2021/08/01 17:20:12;;;;;;;3.63;1.45;;;;;;;;;;6199175;28;20168;-68
2021/08/01 17:23:14;;;;;;;2.58;1.45;;;;;;;;;;6193534;28;20124;-68
2021/08/01 17:26:17;;;;;;;2.67;1.45;;;;;;;;;;6190199;28;20046;-68
2021/08/01 17:29:19;;;;;;;;;;;;;;;;;;6199843;28;20081;-68
2021/08/01 17:32:22;;;;;;;4.63;1.70;;;;;;;;;;6186199;28;19936;-67
2021/08/01 17:35:29;;;;;;;4.13;2.20;;;;;;;;;;6187999;28;20188;-69
2021/08/01 17:38:32;;;;;;;6.10;2.80;;;;;;;;;;6199294;28;20046;-68
2021/08/01 17:41:37;;;;;;;2.30;1.55;;;;;;;;;;6187493;28;20053;-68
2021/08/01 17:44:42;;;;;;;6.15;2.25;;;;;;;;;;6202813;28;20061;-69
2021/08/01 17:47:43;;;;;;;3.22;2.55;;;;;;;;;;6180380;28;20460;-70
2021/08/01 17:50:47;;;;;;;2.75;2.05;;;;;;;;;;6189805;28;20133;-70
2021/08/01 17:53:48;;;;;;;;;;;;;;;;;;6198067;28;20057;-70
2021/08/01 17:56:51;;;;;;;4.78;2.35;;;;;;;;;;6194091;28;19922;-68
2021/08/01 17:59:53;;;;;;;2.75;1.98;;;;;;;;;;6200226;28;20060;-69
2021/08/01 18:02:56;;;;;;;4.45;2.50;;;;;;;;;;6186311;28;20112;-68
2021/08/01 18:06:01;;;;;;;7.03;2.40;;;;;;;;;;6186330;28;20192;-68
2021/08/01 18:09:07;;;;;;;4.22;2.20;;;;;;;;;;6196688;28;20053;-69
2021/08/01 18:12:13;;;;;;;5.30;2.28;;;;;;;;;;6188069;28;20414;-68
2021/08/01 18:15:16;;;;;;;5.32;2.67;;;;;;;;;;6193719;28;20058;-70
2021/08/01 18:18:18;;;;;;;5.43;2.33;;;;;;;;;;6190115;28;20120;-69
2021/08/01 18:21:21;;;;;;;7.07;2.40;;;;;;;;;;6189959;28;20494;-69
2021/08/01 18:24:25;;;;;;;4.15;2.50;;;;;;;;;;6193124;28;20043;-68
2021/08/01 18:27:28;;;;;;;5.03;2.70;;;;;;;;;;6192214;28;20180;-67
2021/08/01 18:30:29;;;;;;;4.95;2.58;;;;;;;;;;6203658;28;20043;-70